Akademik Fedorov — UCKZ — position and weather

sailwx.info

Track history (hours):
 
Tides and Currents Weather Stations Pressure Air Temp Water Temp Dewpoint Dewpoint Depression Visibility Wind Speed Wind Dir Waves Ship Positions

Oceanographic research ship Akademik Fedorov (Russia)

Detailed information on ship capabilities available from ARCUS's ALIAS (Arctic Logistics Information and Support) project.

Last reported at 2019-Aug-03 06:30 UTC. Time now 2019-Aug-24 22:39 UTC.
Position N 68°59' E 033°03'.
Warning: this ship's position is 21 days out of date.

Length 141 m; beam 17 m.

Type: Other ship. MMSI: 273412710.

Date/timePositionNaut miles runAvg speedWind from/ knotsBaromVisibWave heightAir tempDewpointWater temp
2019-Aug-03 06:30N 68°59' E 033°03'3 0.1
2019-Aug-01 07:31N 68°57' E 033°01'1 1.3
2019-Aug-01 07:03N 68°57' E 033°01'0 7.6
2019-Aug-01 07:00N 68°58' E 033°01'123 8.0
2019-Jul-31 15:41N 70°54' E 031°02'1 7.8
2019-Jul-31 15:30N 70°55' E 030°58'4 7.8
2019-Jul-31 15:00N 70°57' E 030°49'4 7.9
2019-Jul-31 14:30N 70°59' E 030°39'4 8.2
2019-Jul-31 14:00N 71°02' E 030°30'4 7.9
2019-Jul-31 13:30N 71°04' E 030°20'4 7.9
2019-Jul-31 13:00N 71°07' E 030°10'4 8.0
2019-Jul-31 12:30N 71°09' E 030°00'4 8.1
2019-Jul-31 12:00N 71°11' E 029°50'4 8.0
2019-Jul-31 11:30N 71°14' E 029°40'4 8.1
2019-Jul-31 11:00N 71°16' E 029°30'4 8.6
2019-Jul-31 10:30N 71°19' E 029°19'510.8
2019-Jul-31 10:00N 71°22' E 029°06'4 8.8
2019-Jul-31 09:30N 71°24' E 028°54'510.2
2019-Jul-31 09:00N 71°26' E 028°39'5 9.7
2019-Jul-31 08:30N 71°27' E 028°24'510.7
2019-Jul-31 08:00N 71°28' E 028°07'611.5
2019-Jul-31 07:30N 71°30' E 027°50'611.0
2019-Jul-31 06:59N 71°31' E 027°33'611.6
2019-Jul-31 06:30N 71°33' E 027°15'611.8
2019-Jul-31 06:00N 71°34' E 026°57'612.2
2019-Jul-31 05:30N 71°36' E 026°39'612.6
2019-Jul-31 05:00N 71°37' E 026°20'612.3
2019-Jul-31 04:30N 71°39' E 026°01'611.9
2019-Jul-31 03:59N 71°39' E 025°42'612.2
2019-Jul-31 03:30N 71°38' E 025°23'612.6
2019-Jul-31 03:00N 71°37' E 025°03'1312.7
2019-Jul-31 02:00N 71°35' E 024°24'613.0
2019-Jul-31 01:30N 71°33' E 024°04'713.1
2019-Jul-31 00:59N 71°32' E 023°43'713.3
2019-Jul-31 00:30N 71°31' E 023°23'713.6
2019-Jul-31 00:00N 71°29' E 023°02'713.2
2019-Jul-30 23:30N 71°28' E 022°41'612.9
2019-Jul-30 23:00N 71°27' E 022°22'712.8
2019-Jul-30 22:29N 71°24' E 022°03'612.6
2019-Jul-30 21:59N 71°22' E 021°45'612.6
2019-Jul-30 21:30N 71°19' E 021°27'612.3
2019-Jul-30 20:59N 71°16' E 021°09'612.1
2019-Jul-30 20:30N 71°14' E 020°53'612.0
2019-Jul-30 20:00N 71°11' E 020°35'612.1
2019-Jul-30 19:30N 71°09' E 020°18'611.9
2019-Jul-30 19:00N 71°06' E 020°02'611.8
2019-Jul-30 18:30N 71°04' E 019°45'611.5
2019-Jul-30 18:00N 71°02' E 019°29'611.4
2019-Jul-30 17:29N 70°59' E 019°13'612.3
2019-Jul-30 17:00N 70°56' E 018°56'714.5
2019-Jul-30 16:30N 70°52' E 018°39'714.2
2019-Jul-30 15:59N 70°47' E 018°22'713.9
2019-Jul-30 15:29N 70°43' E 018°06'713.9
2019-Jul-30 15:00N 70°38' E 017°51'714.1
2019-Jul-30 14:30N 70°34' E 017°34'714.1
2019-Jul-30 14:00N 70°29' E 017°19'714.0
2019-Jul-30 13:30N 70°24' E 017°03'714.2
2019-Jul-30 13:00N 70°20' E 016°48'714.3
2019-Jul-30 12:30N 70°15' E 016°31'714.0
2019-Jul-30 12:00N 70°10' E 016°16'713.8
2019-Jul-30 11:30N 70°06' E 016°00'714.0
2019-Jul-30 11:00N 70°01' E 015°47'713.7
2019-Jul-30 10:30N 69°55' E 015°34'713.3
2019-Jul-30 10:00N 69°50' E 015°22'713.1
2019-Jul-30 09:30N 69°45' E 015°08'713.2
2019-Jul-30 09:00N 69°42' E 014°53'613.2
2019-Jul-30 08:30N 69°38' E 014°38'611.6
2019-Jul-30 08:00N 69°34' E 014°24'5 9.8
2019-Jul-30 07:31N 69°32' E 014°13'612.5
2019-Jul-30 07:00N 69°27' E 013°59'713.7
2019-Jul-30 06:30N 69°22' E 013°47'713.7
2019-Jul-30 06:00N 69°17' E 013°35'713.9
2019-Jul-30 05:30N 69°12' E 013°22'714.0
2019-Jul-30 05:00N 69°06' E 013°10'714.1
2019-Jul-30 04:30N 69°01' E 012°58'713.4
2019-Jul-30 04:00N 68°56' E 012°43'712.9
2019-Jul-30 03:30N 68°53' E 012°28'612.2
2019-Jul-30 03:00N 68°50' E 012°14'611.8
2019-Jul-30 02:30N 68°47' E 011°59'611.8
2019-Jul-30 02:00N 68°44' E 011°46'611.5
2019-Jul-30 01:30N 68°39' E 011°36'611.6
2019-Jul-30 00:59N 68°35' E 011°25'611.3
2019-Jul-30 00:30N 68°30' E 011°16'610.9
2019-Jul-30 00:00N 68°26' E 011°07'510.6
2019-Jul-29 23:30N 68°22' E 010°59'510.6
2019-Jul-29 23:00N 68°18' E 010°50'510.5
2019-Jul-29 22:30N 68°14' E 010°38'5 9.4
2019-Jul-29 22:00N 68°12' E 010°28'4 9.0
2019-Jul-29 21:30N 68°09' E 010°18'5 9.1
2019-Jul-29 21:00N 68°07' E 010°07'4 8.4
2019-Jul-29 20:30N 68°04' E 009°58'5 9.3
2019-Jul-29 20:00N 67°60' E 009°54'4 8.5
2019-Jul-29 19:30N 67°56' E 009°50'5 8.9
2019-Jul-29 19:00N 67°52' E 009°45'510.1
2019-Jul-29 18:31N 67°47' E 009°40'5 9.1
2019-Jul-29 18:00N 67°43' E 009°35'5 8.8
2019-Jul-29 17:30N 67°39' E 009°30'5 9.4
2019-Jul-29 17:01N 67°35' E 009°24'4 8.7
2019-Jul-29 16:31N 67°31' E 009°19'4 8.7
2019-Jul-29 16:00N 67°28' E 009°10'5 9.2
2019-Jul-29 15:30N 67°27' E 008°59'510.1
2019-Jul-29 15:00N 67°25' E 008°47'5 9.9
2019-Jul-29 14:30N 67°23' E 008°35'5 9.6
2019-Jul-29 14:00N 67°22' E 008°23'510.7
2019-Jul-29 13:30N 67°20' E 008°10'611.4
2019-Jul-29 13:00N 67°18' E 007°57'611.5
2019-Jul-29 12:30N 67°16' E 007°42'611.2
2019-Jul-29 12:00N 67°14' E 007°29'611.3
2019-Jul-29 11:30N 67°12' E 007°16'243 8.5
2019-Jul-28 06:50N 63°30' E 003°16'514.3
2019-Jul-28 06:30N 63°26' E 003°19'714.5
2019-Jul-28 06:00N 63°19' E 003°23'714.5
2019-Jul-28 05:30N 63°12' E 003°27'714.1
2019-Jul-28 05:00N 63°05' E 003°32'713.9
2019-Jul-28 04:30N 62°58' E 003°37'714.1
2019-Jul-28 04:00N 62°52' E 003°41'714.1
2019-Jul-28 03:30N 62°45' E 003°46'714.7
2019-Jul-28 03:00N 62°38' E 003°50'1515.1
2019-Jul-28 02:00N 62°23' E 003°58'715.0
2019-Jul-28 01:30N 62°16' E 004°02'815.1
2019-Jul-28 01:00N 62°09' E 004°06'714.7
2019-Jul-28 00:30N 62°02' E 004°09'714.7
2019-Jul-28 00:00N 61°54' E 004°09'714.8
2019-Jul-27 23:30N 61°47' E 004°09'714.5
2019-Jul-27 23:00N 61°40' E 004°08'714.6
2019-Jul-27 22:30N 61°32' E 004°07'714.7
2019-Jul-27 22:00N 61°25' E 004°06'714.7
2019-Jul-27 21:30N 61°18' E 004°04'714.5
2019-Jul-27 21:00N 61°11' E 004°01'713.9
2019-Jul-27 20:30N 61°04' E 003°59'714.5
2019-Jul-27 20:00N 60°57' E 004°06'814.9
2019-Jul-27 19:30N 60°50' E 004°07'714.9
2019-Jul-27 19:00N 60°42' E 004°08'714.8
2019-Jul-27 18:30N 60°35' E 004°09'714.4
2019-Jul-27 18:00N 60°28' E 004°10'714.3
2019-Jul-27 17:30N 60°21' E 004°10'714.3
2019-Jul-27 17:00N 60°13' E 004°10'714.8
2019-Jul-27 16:30N 60°06' E 004°10'714.7
2019-Jul-27 16:00N 59°59' E 004°10'714.8
2019-Jul-27 15:30N 59°51' E 004°10'714.7
2019-Jul-27 15:00N 59°44' E 004°10'714.7
2019-Jul-27 14:30N 59°37' E 004°10'714.8
2019-Jul-27 14:00N 59°29' E 004°10'714.9
2019-Jul-27 13:30N 59°22' E 004°10'815.1
2019-Jul-27 13:00N 59°14' E 004°10'715.1
2019-Jul-27 12:30N 59°07' E 004°10'715.0
2019-Jul-27 12:00N 58°59' E 004°11'714.8
2019-Jul-27 11:30N 58°54' E 004°21'714.9
2019-Jul-27 11:00N 58°48' E 004°31'715.0
2019-Jul-27 10:30N 58°43' E 004°41'815.2
2019-Jul-27 10:00N 58°38' E 004°51'815.3
2019-Jul-27 09:30N 58°32' E 005°02'715.1
2019-Jul-27 09:00N 58°27' E 005°12'815.9
2019-Jul-27 08:30N 58°21' E 005°22'815.7
2019-Jul-27 08:00N 58°16' E 005°34'815.3
2019-Jul-27 07:30N 58°11' E 005°45'815.1
2019-Jul-27 07:00N 58°06' E 005°56'815.3
2019-Jul-27 06:30N 58°01' E 006°07'815.9
2019-Jul-27 06:00N 57°56' E 006°19'816.3
2019-Jul-27 05:30N 57°51' E 006°30'814.8
2019-Jul-27 05:00N 57°47' E 006°43'816.1
2019-Jul-27 04:30N 57°46' E 006°57'815.9
2019-Jul-27 04:00N 57°45' E 007°12'815.6
2019-Jul-27 03:30N 57°45' E 007°27'815.5
2019-Jul-27 03:00N 57°45' E 007°41'1515.4
2019-Jul-27 02:00N 57°48' E 008°09'815.2
2019-Jul-27 01:30N 57°48' E 008°24'715.0
2019-Jul-27 01:01N 57°49' E 008°38'714.9
2019-Jul-27 00:30N 57°50' E 008°52'714.9
2019-Jul-27 00:00N 57°51' E 009°05'714.9
2019-Jul-26 23:30N 57°53' E 009°19'714.8
2019-Jul-26 23:01N 57°54' E 009°33'814.8
2019-Jul-26 22:30N 57°55' E 009°47'815.2
2019-Jul-26 21:59N 57°56' E 010°01'715.3
2019-Jul-26 21:30N 57°58' E 010°15'815.6
2019-Jul-26 21:01N 57°58' E 010°30'815.7
2019-Jul-26 20:31N 57°58' E 010°44'815.8
2019-Jul-26 20:00N 57°52' E 010°54'816.5
2019-Jul-26 19:30N 57°45' E 011°03'815.8
2019-Jul-26 19:00N 57°39' E 011°12'816.0
2019-Jul-26 18:31N 57°32' E 011°21'816.2
2019-Jul-26 18:01N 57°26' E 011°29'815.9
2019-Jul-26 17:30N 57°18' E 011°34'815.9
2019-Jul-26 17:00N 57°11' E 011°39'816.3
2019-Jul-26 16:30N 57°03' E 011°44'815.9
2019-Jul-26 16:01N 56°55' E 011°48'815.6
2019-Jul-26 15:30N 56°48' E 011°52'714.7
2019-Jul-26 15:00N 56°41' E 011°49'1116.3
2019-Jul-26 14:21N 56°32' E 011°39'2616.0
2019-Jul-26 12:45N 56°10' E 011°15'4514.9
2019-Jul-26 09:43N 55°25' E 010°59'516.3
2019-Jul-26 09:24N 55°20' E 011°03'616.4
2019-Jul-26 09:00N 55°14' E 011°06'816.3
2019-Jul-26 08:31N 55°06' E 011°03'816.2
2019-Jul-26 08:00N 54°59' E 011°00'815.9
2019-Jul-26 07:30N 54°52' E 010°53'816.2
2019-Jul-26 07:00N 54°44' E 010°53'815.0
2019-Jul-26 06:30N 54°37' E 010°48'815.1
2019-Jul-26 06:00N 54°34' E 010°36'815.7
2019-Jul-26 05:30N 54°31' E 010°24'612.7
2019-Jul-26 05:00N 54°27' E 010°15'611.5
2019-Jul-26 04:30N 54°22' E 010°10'2 2.9
2019-Jul-26 03:58N 54°20' E 010°10'0 0.0
2019-Jul-26 03:28N 54°20' E 010°10'0 0.0
2019-Jul-26 02:58N 54°20' E 010°10'0 0.0
2019-Jul-26 01:58N 54°20' E 010°10'0 0.0
2019-Jul-26 01:28N 54°20' E 010°10'0 0.0
2019-Jul-26 00:58N 54°20' E 010°10'0 0.0
2019-Jul-26 00:28N 54°20' E 010°10'0 0.0
2019-Jul-25 23:58N 54°20' E 010°10'0 0.0
2019-Jul-25 23:28N 54°20' E 010°10'0 0.0
2019-Jul-25 22:58N 54°20' E 010°10'0 0.0
2019-Jul-25 22:28N 54°20' E 010°10'0 0.0
2019-Jul-25 21:58N 54°20' E 010°10'0 0.0
2019-Jul-25 21:28N 54°20' E 010°10'0 0.0
2019-Jul-25 20:58N 54°20' E 010°10'0 0.0
2019-Jul-25 20:28N 54°20' E 010°10'0 0.0
2019-Jul-25 19:58N 54°20' E 010°10'0 0.0
2019-Jul-25 19:28N 54°20' E 010°10'0 0.0
2019-Jul-25 18:58N 54°20' E 010°10'0 0.0
2019-Jul-25 18:28N 54°20' E 010°10'0 0.0
2019-Jul-25 17:58N 54°20' E 010°10'0 0.0
2019-Jul-25 17:28N 54°20' E 010°10'0 0.0
2019-Jul-25 16:58N 54°20' E 010°10'0 0.0
2019-Jul-25 16:28N 54°20' E 010°10'0 0.0
2019-Jul-25 15:58N 54°20' E 010°10'0 0.0
2019-Jul-25 15:28N 54°20' E 010°10'0 0.0
2019-Jul-25 14:58N 54°20' E 010°10'0 0.0
2019-Jul-25 14:28N 54°20' E 010°10'0 0.0
2019-Jul-25 13:58N 54°20' E 010°10'0 0.0
2019-Jul-25 13:28N 54°20' E 010°10'0 0.0
2019-Jul-25 12:58N 54°20' E 010°10'0 0.0
2019-Jul-25 12:28N 54°20' E 010°10'0 0.0
2019-Jul-25 11:58N 54°20' E 010°10'0 0.0
2019-Jul-25 11:28N 54°20' E 010°10'0 0.0
2019-Jul-25 10:58N 54°20' E 010°10'0 0.0
2019-Jul-25 10:28N 54°20' E 010°10'0 0.0
2019-Jul-25 09:58N 54°20' E 010°10'0 0.0
2019-Jul-25 09:28N 54°20' E 010°10'0 0.0
2019-Jul-25 08:58N 54°20' E 010°10'0 0.0
2019-Jul-25 08:25N 54°20' E 010°10'0 0.0
2019-Jul-25 07:58N 54°20' E 010°10'0 0.0
2019-Jul-25 07:28N 54°20' E 010°10'0 0.0
2019-Jul-25 06:58N 54°20' E 010°10'0 0.0
2019-Jul-25 06:28N 54°20' E 010°10'0 0.0
2019-Jul-25 05:58N 54°20' E 010°10'0 0.0
2019-Jul-25 05:28N 54°20' E 010°10'0 0.0
2019-Jul-25 04:58N 54°20' E 010°10'0 0.0
2019-Jul-25 04:28N 54°20' E 010°10'0 0.0
2019-Jul-25 03:58N 54°20' E 010°10'0 0.0
2019-Jul-25 03:28N 54°20' E 010°10'0 0.0
2019-Jul-25 02:58N 54°20' E 010°10'0 0.0
2019-Jul-25 01:58N 54°20' E 010°10'0 0.0
2019-Jul-25 01:28N 54°20' E 010°10'0 0.0
2019-Jul-25 00:58N 54°20' E 010°10'0 0.0
2019-Jul-25 00:28N 54°20' E 010°10'0 0.0
2019-Jul-24 23:58N 54°20' E 010°10'0 0.0
2019-Jul-24 23:28N 54°20' E 010°10'0 0.0
2019-Jul-24 22:58N 54°20' E 010°10'0 0.0
2019-Jul-24 22:28N 54°20' E 010°10'0 0.0
2019-Jul-24 21:58N 54°20' E 010°10'0 0.0
2019-Jul-24 21:28N 54°20' E 010°10'0 0.0
2019-Jul-24 20:58N 54°20' E 010°10'0 0.0
2019-Jul-24 20:28N 54°20' E 010°10'0 0.0
2019-Jul-24 19:58N 54°20' E 010°10'0 0.0
2019-Jul-24 19:28N 54°20' E 010°10'0 0.0
2019-Jul-24 18:58N 54°20' E 010°10'0 0.0
2019-Jul-24 18:28N 54°20' E 010°10'0 0.0
2019-Jul-24 17:58N 54°20' E 010°10'0 0.0
2019-Jul-24 17:28N 54°20' E 010°10'0 0.0
2019-Jul-24 16:58N 54°20' E 010°10'0 0.0
2019-Jul-24 16:28N 54°20' E 010°10'0 0.0
2019-Jul-24 15:58N 54°20' E 010°10'0 0.0
2019-Jul-24 15:25N 54°20' E 010°10'0 0.0
2019-Jul-24 14:58N 54°20' E 010°10'0 0.0
2019-Jul-24 14:28N 54°20' E 010°10'0 0.0
2019-Jul-24 13:58N 54°20' E 010°10'0 0.0
2019-Jul-24 13:28N 54°20' E 010°10'0 0.0
2019-Jul-24 12:58N 54°20' E 010°10'0 0.0
2019-Jul-24 12:28N 54°20' E 010°10'0 0.0
2019-Jul-24 11:58N 54°20' E 010°10'0 0.0
2019-Jul-24 11:28N 54°20' E 010°10'0 0.0
2019-Jul-24 10:58N 54°20' E 010°10'0 0.0
2019-Jul-24 10:28N 54°20' E 010°10'0 0.0
2019-Jul-24 09:58N 54°20' E 010°10'0 0.0
2019-Jul-24 09:28N 54°20' E 010°10'0 0.0
2019-Jul-24 08:58N 54°20' E 010°10'0 0.0
2019-Jul-24 08:28N 54°20' E 010°10'0 0.0
2019-Jul-24 07:58N 54°20' E 010°10'0 0.0
2019-Jul-24 07:28N 54°20' E 010°10'0 0.0
2019-Jul-24 06:58N 54°20' E 010°10'  
Track history (hours):
 
Tides and Currents Weather Stations Pressure Air Temp Water Temp Dewpoint Dewpoint Depression Visibility Wind Speed Wind Dir Waves Ship Positions

Oceanographic research ship Akademik Fedorov (Russia)

Detailed information on ship capabilities available from ARCUS's ALIAS (Arctic Logistics Information and Support) project.

Last reported at 2019-Aug-03 06:30 UTC. Time now 2019-Aug-24 22:39 UTC.
Position N 68°59' E 033°03'.
Warning: this ship's position is 21 days out of date.

Length 141 m; beam 17 m.

Type: Other ship. MMSI: 273412710.

Date/timePositionNaut miles runAvg speedWind from/ knotsBaromVisibWave heightAir tempDewpointWater temp
2019-Aug-03 06:30N 68°59' E 033°03'3 0.1
2019-Aug-01 07:31N 68°57' E 033°01'1 1.3
2019-Aug-01 07:03N 68°57' E 033°01'0 7.6
2019-Aug-01 07:00N 68°58' E 033°01'123 8.0
2019-Jul-31 15:41N 70°54' E 031°02'1 7.8
2019-Jul-31 15:30N 70°55' E 030°58'4 7.8
2019-Jul-31 15:00N 70°57' E 030°49'4 7.9
2019-Jul-31 14:30N 70°59' E 030°39'4 8.2
2019-Jul-31 14:00N 71°02' E 030°30'4 7.9
2019-Jul-31 13:30N 71°04' E 030°20'4 7.9
2019-Jul-31 13:00N 71°07' E 030°10'4 8.0
2019-Jul-31 12:30N 71°09' E 030°00'4 8.1
2019-Jul-31 12:00N 71°11' E 029°50'4 8.0
2019-Jul-31 11:30N 71°14' E 029°40'4 8.1
2019-Jul-31 11:00N 71°16' E 029°30'4 8.6
2019-Jul-31 10:30N 71°19' E 029°19'510.8
2019-Jul-31 10:00N 71°22' E 029°06'4 8.8
2019-Jul-31 09:30N 71°24' E 028°54'510.2
2019-Jul-31 09:00N 71°26' E 028°39'5 9.7
2019-Jul-31 08:30N 71°27' E 028°24'510.7
2019-Jul-31 08:00N 71°28' E 028°07'611.5
2019-Jul-31 07:30N 71°30' E 027°50'611.0
2019-Jul-31 06:59N 71°31' E 027°33'611.6
2019-Jul-31 06:30N 71°33' E 027°15'611.8
2019-Jul-31 06:00N 71°34' E 026°57'612.2
2019-Jul-31 05:30N 71°36' E 026°39'612.6
2019-Jul-31 05:00N 71°37' E 026°20'612.3
2019-Jul-31 04:30N 71°39' E 026°01'611.9
2019-Jul-31 03:59N 71°39' E 025°42'612.2
2019-Jul-31 03:30N 71°38' E 025°23'612.6
2019-Jul-31 03:00N 71°37' E 025°03'1312.7
2019-Jul-31 02:00N 71°35' E 024°24'613.0
2019-Jul-31 01:30N 71°33' E 024°04'713.1
2019-Jul-31 00:59N 71°32' E 023°43'713.3
2019-Jul-31 00:30N 71°31' E 023°23'713.6
2019-Jul-31 00:00N 71°29' E 023°02'713.2
2019-Jul-30 23:30N 71°28' E 022°41'612.9
2019-Jul-30 23:00N 71°27' E 022°22'712.8
2019-Jul-30 22:29N 71°24' E 022°03'612.6
2019-Jul-30 21:59N 71°22' E 021°45'612.6
2019-Jul-30 21:30N 71°19' E 021°27'612.3
2019-Jul-30 20:59N 71°16' E 021°09'612.1
2019-Jul-30 20:30N 71°14' E 020°53'612.0
2019-Jul-30 20:00N 71°11' E 020°35'612.1
2019-Jul-30 19:30N 71°09' E 020°18'611.9
2019-Jul-30 19:00N 71°06' E 020°02'611.8
2019-Jul-30 18:30N 71°04' E 019°45'611.5
2019-Jul-30 18:00N 71°02' E 019°29'611.4
2019-Jul-30 17:29N 70°59' E 019°13'612.3
2019-Jul-30 17:00N 70°56' E 018°56'714.5
2019-Jul-30 16:30N 70°52' E 018°39'714.2
2019-Jul-30 15:59N 70°47' E 018°22'713.9
2019-Jul-30 15:29N 70°43' E 018°06'713.9
2019-Jul-30 15:00N 70°38' E 017°51'714.1
2019-Jul-30 14:30N 70°34' E 017°34'714.1
2019-Jul-30 14:00N 70°29' E 017°19'714.0
2019-Jul-30 13:30N 70°24' E 017°03'714.2
2019-Jul-30 13:00N 70°20' E 016°48'714.3
2019-Jul-30 12:30N 70°15' E 016°31'714.0
2019-Jul-30 12:00N 70°10' E 016°16'713.8
2019-Jul-30 11:30N 70°06' E 016°00'714.0
2019-Jul-30 11:00N 70°01' E 015°47'713.7
2019-Jul-30 10:30N 69°55' E 015°34'713.3
2019-Jul-30 10:00N 69°50' E 015°22'713.1
2019-Jul-30 09:30N 69°45' E 015°08'713.2
2019-Jul-30 09:00N 69°42' E 014°53'613.2
2019-Jul-30 08:30N 69°38' E 014°38'611.6
2019-Jul-30 08:00N 69°34' E 014°24'5 9.8
2019-Jul-30 07:31N 69°32' E 014°13'612.5
2019-Jul-30 07:00N 69°27' E 013°59'713.7
2019-Jul-30 06:30N 69°22' E 013°47'713.7
2019-Jul-30 06:00N 69°17' E 013°35'713.9
2019-Jul-30 05:30N 69°12' E 013°22'714.0
2019-Jul-30 05:00N 69°06' E 013°10'714.1
2019-Jul-30 04:30N 69°01' E 012°58'713.4
2019-Jul-30 04:00N 68°56' E 012°43'712.9
2019-Jul-30 03:30N 68°53' E 012°28'612.2
2019-Jul-30 03:00N 68°50' E 012°14'611.8
2019-Jul-30 02:30N 68°47' E 011°59'611.8
2019-Jul-30 02:00N 68°44' E 011°46'611.5
2019-Jul-30 01:30N 68°39' E 011°36'611.6
2019-Jul-30 00:59N 68°35' E 011°25'611.3
2019-Jul-30 00:30N 68°30' E 011°16'610.9
2019-Jul-30 00:00N 68°26' E 011°07'510.6
2019-Jul-29 23:30N 68°22' E 010°59'510.6
2019-Jul-29 23:00N 68°18' E 010°50'510.5
2019-Jul-29 22:30N 68°14' E 010°38'5 9.4
2019-Jul-29 22:00N 68°12' E 010°28'4 9.0
2019-Jul-29 21:30N 68°09' E 010°18'5 9.1
2019-Jul-29 21:00N 68°07' E 010°07'4 8.4
2019-Jul-29 20:30N 68°04' E 009°58'5 9.3
2019-Jul-29 20:00N 67°60' E 009°54'4 8.5
2019-Jul-29 19:30N 67°56' E 009°50'5 8.9
2019-Jul-29 19:00N 67°52' E 009°45'510.1
2019-Jul-29 18:31N 67°47' E 009°40'5 9.1
2019-Jul-29 18:00N 67°43' E 009°35'5 8.8
2019-Jul-29 17:30N 67°39' E 009°30'5 9.4
2019-Jul-29 17:01N 67°35' E 009°24'4 8.7
2019-Jul-29 16:31N 67°31' E 009°19'4 8.7
2019-Jul-29 16:00N 67°28' E 009°10'5 9.2
2019-Jul-29 15:30N 67°27' E 008°59'510.1
2019-Jul-29 15:00N 67°25' E 008°47'5 9.9
2019-Jul-29 14:30N 67°23' E 008°35'5 9.6
2019-Jul-29 14:00N 67°22' E 008°23'510.7
2019-Jul-29 13:30N 67°20' E 008°10'611.4
2019-Jul-29 13:00N 67°18' E 007°57'611.5
2019-Jul-29 12:30N 67°16' E 007°42'611.2
2019-Jul-29 12:00N 67°14' E 007°29'611.3
2019-Jul-29 11:30N 67°12' E 007°16'243 8.5
2019-Jul-28 06:50N 63°30' E 003°16'514.3
2019-Jul-28 06:30N 63°26' E 003°19'714.5
2019-Jul-28 06:00N 63°19' E 003°23'714.5
2019-Jul-28 05:30N 63°12' E 003°27'714.1
2019-Jul-28 05:00N 63°05' E 003°32'713.9
2019-Jul-28 04:30N 62°58' E 003°37'714.1
2019-Jul-28 04:00N 62°52' E 003°41'714.1
2019-Jul-28 03:30N 62°45' E 003°46'714.7
2019-Jul-28 03:00N 62°38' E 003°50'1515.1
2019-Jul-28 02:00N 62°23' E 003°58'715.0
2019-Jul-28 01:30N 62°16' E 004°02'815.1
2019-Jul-28 01:00N 62°09' E 004°06'714.7
2019-Jul-28 00:30N 62°02' E 004°09'714.7
2019-Jul-28 00:00N 61°54' E 004°09'714.8
2019-Jul-27 23:30N 61°47' E 004°09'714.5
2019-Jul-27 23:00N 61°40' E 004°08'714.6
2019-Jul-27 22:30N 61°32' E 004°07'714.7
2019-Jul-27 22:00N 61°25' E 004°06'714.7
2019-Jul-27 21:30N 61°18' E 004°04'714.5
2019-Jul-27 21:00N 61°11' E 004°01'713.9
2019-Jul-27 20:30N 61°04' E 003°59'714.5
2019-Jul-27 20:00N 60°57' E 004°06'814.9
2019-Jul-27 19:30N 60°50' E 004°07'714.9
2019-Jul-27 19:00N 60°42' E 004°08'714.8
2019-Jul-27 18:30N 60°35' E 004°09'714.4
2019-Jul-27 18:00N 60°28' E 004°10'714.3
2019-Jul-27 17:30N 60°21' E 004°10'714.3
2019-Jul-27 17:00N 60°13' E 004°10'714.8
2019-Jul-27 16:30N 60°06' E 004°10'714.7
2019-Jul-27 16:00N 59°59' E 004°10'714.8
2019-Jul-27 15:30N 59°51' E 004°10'714.7
2019-Jul-27 15:00N 59°44' E 004°10'714.7
2019-Jul-27 14:30N 59°37' E 004°10'714.8
2019-Jul-27 14:00N 59°29' E 004°10'714.9
2019-Jul-27 13:30N 59°22' E 004°10'815.1
2019-Jul-27 13:00N 59°14' E 004°10'715.1
2019-Jul-27 12:30N 59°07' E 004°10'715.0
2019-Jul-27 12:00N 58°59' E 004°11'714.8
2019-Jul-27 11:30N 58°54' E 004°21'714.9
2019-Jul-27 11:00N 58°48' E 004°31'715.0
2019-Jul-27 10:30N 58°43' E 004°41'815.2
2019-Jul-27 10:00N 58°38' E 004°51'815.3
2019-Jul-27 09:30N 58°32' E 005°02'715.1
2019-Jul-27 09:00N 58°27' E 005°12'815.9
2019-Jul-27 08:30N 58°21' E 005°22'815.7
2019-Jul-27 08:00N 58°16' E 005°34'815.3
2019-Jul-27 07:30N 58°11' E 005°45'815.1
2019-Jul-27 07:00N 58°06' E 005°56'815.3
2019-Jul-27 06:30N 58°01' E 006°07'815.9
2019-Jul-27 06:00N 57°56' E 006°19'816.3
2019-Jul-27 05:30N 57°51' E 006°30'814.8
2019-Jul-27 05:00N 57°47' E 006°43'816.1
2019-Jul-27 04:30N 57°46' E 006°57'815.9
2019-Jul-27 04:00N 57°45' E 007°12'815.6
2019-Jul-27 03:30N 57°45' E 007°27'815.5
2019-Jul-27 03:00N 57°45' E 007°41'1515.4
2019-Jul-27 02:00N 57°48' E 008°09'815.2
2019-Jul-27 01:30N 57°48' E 008°24'715.0
2019-Jul-27 01:01N 57°49' E 008°38'714.9
2019-Jul-27 00:30N 57°50' E 008°52'714.9
2019-Jul-27 00:00N 57°51' E 009°05'714.9
2019-Jul-26 23:30N 57°53' E 009°19'714.8
2019-Jul-26 23:01N 57°54' E 009°33'814.8
2019-Jul-26 22:30N 57°55' E 009°47'815.2
2019-Jul-26 21:59N 57°56' E 010°01'715.3
2019-Jul-26 21:30N 57°58' E 010°15'815.6
2019-Jul-26 21:01N 57°58' E 010°30'815.7
2019-Jul-26 20:31N 57°58' E 010°44'815.8
2019-Jul-26 20:00N 57°52' E 010°54'816.5
2019-Jul-26 19:30N 57°45' E 011°03'815.8
2019-Jul-26 19:00N 57°39' E 011°12'816.0
2019-Jul-26 18:31N 57°32' E 011°21'816.2
2019-Jul-26 18:01N 57°26' E 011°29'815.9
2019-Jul-26 17:30N 57°18' E 011°34'815.9
2019-Jul-26 17:00N 57°11' E 011°39'816.3
2019-Jul-26 16:30N 57°03' E 011°44'815.9
2019-Jul-26 16:01N 56°55' E 011°48'815.6
2019-Jul-26 15:30N 56°48' E 011°52'714.7
2019-Jul-26 15:00N 56°41' E 011°49'1116.3
2019-Jul-26 14:21N 56°32' E 011°39'2616.0
2019-Jul-26 12:45N 56°10' E 011°15'4514.9
2019-Jul-26 09:43N 55°25' E 010°59'516.3
2019-Jul-26 09:24N 55°20' E 011°03'616.4
2019-Jul-26 09:00N 55°14' E 011°06'816.3
2019-Jul-26 08:31N 55°06' E 011°03'816.2
2019-Jul-26 08:00N 54°59' E 011°00'815.9
2019-Jul-26 07:30N 54°52' E 010°53'816.2
2019-Jul-26 07:00N 54°44' E 010°53'815.0
2019-Jul-26 06:30N 54°37' E 010°48'815.1
2019-Jul-26 06:00N 54°34' E 010°36'815.7
2019-Jul-26 05:30N 54°31' E 010°24'612.7
2019-Jul-26 05:00N 54°27' E 010°15'611.5
2019-Jul-26 04:30N 54°22' E 010°10'2 2.9
2019-Jul-26 03:58N 54°20' E 010°10'0 0.0
2019-Jul-26 03:28N 54°20' E 010°10'0 0.0
2019-Jul-26 02:58N 54°20' E 010°10'0 0.0
2019-Jul-26 01:58N 54°20' E 010°10'0 0.0
2019-Jul-26 01:28N 54°20' E 010°10'0 0.0
2019-Jul-26 00:58N 54°20' E 010°10'0 0.0
2019-Jul-26 00:28N 54°20' E 010°10'0 0.0
2019-Jul-25 23:58N 54°20' E 010°10'0 0.0
2019-Jul-25 23:28N 54°20' E 010°10'0 0.0
2019-Jul-25 22:58N 54°20' E 010°10'0 0.0
2019-Jul-25 22:28N 54°20' E 010°10'0 0.0
2019-Jul-25 21:58N 54°20' E 010°10'0 0.0
2019-Jul-25 21:28N 54°20' E 010°10'0 0.0
2019-Jul-25 20:58N 54°20' E 010°10'0 0.0
2019-Jul-25 20:28N 54°20' E 010°10'0 0.0
2019-Jul-25 19:58N 54°20' E 010°10'0 0.0
2019-Jul-25 19:28N 54°20' E 010°10'0 0.0
2019-Jul-25 18:58N 54°20' E 010°10'0 0.0
2019-Jul-25 18:28N 54°20' E 010°10'0 0.0
2019-Jul-25 17:58N 54°20' E 010°10'0 0.0
2019-Jul-25 17:28N 54°20' E 010°10'0 0.0
2019-Jul-25 16:58N 54°20' E 010°10'0 0.0
2019-Jul-25 16:28N 54°20' E 010°10'0 0.0
2019-Jul-25 15:58N 54°20' E 010°10'0 0.0
2019-Jul-25 15:28N 54°20' E 010°10'0 0.0
2019-Jul-25 14:58N 54°20' E 010°10'0 0.0
2019-Jul-25 14:28N 54°20' E 010°10'0 0.0
2019-Jul-25 13:58N 54°20' E 010°10'0 0.0
2019-Jul-25 13:28N 54°20' E 010°10'0 0.0
2019-Jul-25 12:58N 54°20' E 010°10'0 0.0
2019-Jul-25 12:28N 54°20' E 010°10'0 0.0
2019-Jul-25 11:58N 54°20' E 010°10'0 0.0
2019-Jul-25 11:28N 54°20' E 010°10'0 0.0
2019-Jul-25 10:58N 54°20' E 010°10'0 0.0
2019-Jul-25 10:28N 54°20' E 010°10'0 0.0
2019-Jul-25 09:58N 54°20' E 010°10'0 0.0
2019-Jul-25 09:28N 54°20' E 010°10'0 0.0
2019-Jul-25 08:58N 54°20' E 010°10'0 0.0
2019-Jul-25 08:25N 54°20' E 010°10'0 0.0
2019-Jul-25 07:58N 54°20' E 010°10'0 0.0
2019-Jul-25 07:28N 54°20' E 010°10'0 0.0
2019-Jul-25 06:58N 54°20' E 010°10'0 0.0
2019-Jul-25 06:28N 54°20' E 010°10'0 0.0
2019-Jul-25 05:58N 54°20' E 010°10'0 0.0
2019-Jul-25 05:28N 54°20' E 010°10'0 0.0
2019-Jul-25 04:58N 54°20' E 010°10'0 0.0
2019-Jul-25 04:28N 54°20' E 010°10'0 0.0
2019-Jul-25 03:58N 54°20' E 010°10'0 0.0
2019-Jul-25 03:28N 54°20' E 010°10'0 0.0
2019-Jul-25 02:58N 54°20' E 010°10'0 0.0
2019-Jul-25 01:58N 54°20' E 010°10'0 0.0
2019-Jul-25 01:28N 54°20' E 010°10'0 0.0
2019-Jul-25 00:58N 54°20' E 010°10'0 0.0
2019-Jul-25 00:28N 54°20' E 010°10'0 0.0
2019-Jul-24 23:58N 54°20' E 010°10'0 0.0
2019-Jul-24 23:28N 54°20' E 010°10'0 0.0
2019-Jul-24 22:58N 54°20' E 010°10'0 0.0
2019-Jul-24 22:28N 54°20' E 010°10'0 0.0
2019-Jul-24 21:58N 54°20' E 010°10'0 0.0
2019-Jul-24 21:28N 54°20' E 010°10'0 0.0
2019-Jul-24 20:58N 54°20' E 010°10'0 0.0
2019-Jul-24 20:28N 54°20' E 010°10'0 0.0
2019-Jul-24 19:58N 54°20' E 010°10'0 0.0
2019-Jul-24 19:28N 54°20' E 010°10'0 0.0
2019-Jul-24 18:58N 54°20' E 010°10'0 0.0
2019-Jul-24 18:28N 54°20' E 010°10'0 0.0
2019-Jul-24 17:58N 54°20' E 010°10'0 0.0
2019-Jul-24 17:28N 54°20' E 010°10'0 0.0
2019-Jul-24 16:58N 54°20' E 010°10'0 0.0
2019-Jul-24 16:28N 54°20' E 010°10'0 0.0
2019-Jul-24 15:58N 54°20' E 010°10'0 0.0
2019-Jul-24 15:25N 54°20' E 010°10'0 0.0
2019-Jul-24 14:58N 54°20' E 010°10'0 0.0
2019-Jul-24 14:28N 54°20' E 010°10'0 0.0
2019-Jul-24 13:58N 54°20' E 010°10'0 0.0
2019-Jul-24 13:28N 54°20' E 010°10'0 0.0
2019-Jul-24 12:58N 54°20' E 010°10'0 0.0
2019-Jul-24 12:28N 54°20' E 010°10'0 0.0
2019-Jul-24 11:58N 54°20' E 010°10'0 0.0
2019-Jul-24 11:28N 54°20' E 010°10'0 0.0
2019-Jul-24 10:58N 54°20' E 010°10'0 0.0
2019-Jul-24 10:28N 54°20' E 010°10'0 0.0
2019-Jul-24 09:58N 54°20' E 010°10'0 0.0
2019-Jul-24 09:28N 54°20' E 010°10'0 0.0
2019-Jul-24 08:58N 54°20' E 010°10'0 0.0
2019-Jul-24 08:28N 54°20' E 010°10'0 0.0
2019-Jul-24 07:58N 54°20' E 010°10'0 0.0
2019-Jul-24 07:28N 54°20' E 010°10'0 0.0
2019-Jul-24 06:58N 54°20' E 010°10'  

Dump ship's entire track history